sensor_id;sensor_type;location;lat;lon;timestamp;P1;durP1;ratioP1;P2;durP2;ratioP2
13475;SDS011;6810;63.824;20.288;2023-08-30T00:01:52;0.67;;;0.50;;
13475;SDS011;6810;63.824;20.288;2023-08-30T00:04:19;1.67;;;0.50;;
13475;SDS011;6810;63.824;20.288;2023-08-30T00:06:48;3.33;;;0.50;;
13475;SDS011;6810;63.824;20.288;2023-08-30T00:09:15;0.90;;;0.50;;
13475;SDS011;6810;63.824;20.288;2023-08-30T00:11:42;0.43;;;0.43;;
13475;SDS011;6810;63.824;20.288;2023-08-30T00:14:09;1.37;;;0.50;;
13475;SDS011;6810;63.824;20.288;2023-08-30T00:16:37;1.73;;;0.90;;
13475;SDS011;6810;63.824;20.288;2023-08-30T00:19:05;4.13;;;0.60;;
13475;SDS011;6810;63.824;20.288;2023-08-30T00:21:32;0.80;;;0.60;;
13475;SDS011;6810;63.824;20.288;2023-08-30T00:23:59;1.27;;;0.60;;
13475;SDS011;6810;63.824;20.288;2023-08-30T00:26:27;0.57;;;0.40;;
13475;SDS011;6810;63.824;20.288;2023-08-30T00:28:54;1.87;;;0.50;;
13475;SDS011;6810;63.824;20.288;2023-08-30T00:31:21;2.20;;;0.70;;
13475;SDS011;6810;63.824;20.288;2023-08-30T00:33:48;2.27;;;0.60;;
13475;SDS011;6810;63.824;20.288;2023-08-30T00:36:16;1.57;;;0.70;;
13475;SDS011;6810;63.824;20.288;2023-08-30T00:38:45;0.60;;;0.60;;
13475;SDS011;6810;63.824;20.288;2023-08-30T00:41:12;1.03;;;0.50;;
13475;SDS011;6810;63.824;20.288;2023-08-30T00:43:39;1.03;;;0.30;;
13475;SDS011;6810;63.824;20.288;2023-08-30T00:46:07;0.53;;;0.40;;
13475;SDS011;6810;63.824;20.288;2023-08-30T00:48:34;0.90;;;0.40;;
13475;SDS011;6810;63.824;20.288;2023-08-30T00:51:01;2.23;;;0.60;;
13475;SDS011;6810;63.824;20.288;2023-08-30T00:53:28;1.93;;;0.40;;
13475;SDS011;6810;63.824;20.288;2023-08-30T00:55:56;1.37;;;1.17;;
13475;SDS011;6810;63.824;20.288;2023-08-30T00:58:23;1.07;;;0.50;;
13475;SDS011;6810;63.824;20.288;2023-08-30T01:00:53;4.03;;;0.50;;
13475;SDS011;6810;63.824;20.288;2023-08-30T01:03:20;0.50;;;0.43;;
13475;SDS011;6810;63.824;20.288;2023-08-30T01:05:48;0.60;;;0.40;;
13475;SDS011;6810;63.824;20.288;2023-08-30T01:08:15;1.07;;;0.40;;
13475;SDS011;6810;63.824;20.288;2023-08-30T01:13:35;2.43;;;0.50;;
13475;SDS011;6810;63.824;20.288;2023-08-30T01:16:08;2.43;;;0.60;;
13475;SDS011;6810;63.824;20.288;2023-08-30T01:18:35;1.10;;;0.60;;
13475;SDS011;6810;63.824;20.288;2023-08-30T01:21:05;3.37;;;0.60;;
13475;SDS011;6810;63.824;20.288;2023-08-30T01:23:56;0.30;;;0.30;;
13475;SDS011;6810;63.824;20.288;2023-08-30T01:27:13;1.03;;;0.60;;
13475;SDS011;6810;63.824;20.288;2023-08-30T01:29:33;0.53;;;0.50;;
13475;SDS011;6810;63.824;20.288;2023-08-30T01:32:04;4.03;;;0.60;;
13475;SDS011;6810;63.824;20.288;2023-08-30T01:34:32;0.40;;;0.40;;
13475;SDS011;6810;63.824;20.288;2023-08-30T01:37:01;0.97;;;0.50;;
13475;SDS011;6810;63.824;20.288;2023-08-30T01:39:30;3.53;;;0.80;;
13475;SDS011;6810;63.824;20.288;2023-08-30T01:41:58;0.80;;;0.50;;
13475;SDS011;6810;63.824;20.288;2023-08-30T01:44:30;0.60;;;0.53;;
13475;SDS011;6810;63.824;20.288;2023-08-30T01:46:58;1.60;;;0.40;;
13475;SDS011;6810;63.824;20.288;2023-08-30T01:49:26;0.53;;;0.50;;
13475;SDS011;6810;63.824;20.288;2023-08-30T01:51:58;1.07;;;0.53;;
13475;SDS011;6810;63.824;20.288;2023-08-30T01:54:25;0.60;;;0.60;;
13475;SDS011;6810;63.824;20.288;2023-08-30T01:56:54;2.10;;;0.50;;
13475;SDS011;6810;63.824;20.288;2023-08-30T01:59:21;1.83;;;0.70;;
13475;SDS011;6810;63.824;20.288;2023-08-30T02:01:51;2.30;;;0.50;;
13475;SDS011;6810;63.824;20.288;2023-08-30T02:04:18;0.53;;;0.43;;
13475;SDS011;6810;63.824;20.288;2023-08-30T02:06:55;1.33;;;0.60;;
13475;SDS011;6810;63.824;20.288;2023-08-30T02:09:28;0.67;;;0.37;;
13475;SDS011;6810;63.824;20.288;2023-08-30T02:12:04;1.70;;;0.53;;
13475;SDS011;6810;63.824;20.288;2023-08-30T02:14:33;2.43;;;0.60;;
13475;SDS011;6810;63.824;20.288;2023-08-30T02:17:02;1.27;;;0.40;;
13475;SDS011;6810;63.824;20.288;2023-08-30T02:19:29;0.53;;;0.50;;
13475;SDS011;6810;63.824;20.288;2023-08-30T02:21:56;1.63;;;0.60;;
13475;SDS011;6810;63.824;20.288;2023-08-30T02:24:24;1.70;;;0.50;;
13475;SDS011;6810;63.824;20.288;2023-08-30T02:26:51;1.23;;;0.70;;
13475;SDS011;6810;63.824;20.288;2023-08-30T02:29:18;0.77;;;0.50;;
13475;SDS011;6810;63.824;20.288;2023-08-30T02:31:45;0.33;;;0.30;;
13475;SDS011;6810;63.824;20.288;2023-08-30T02:34:12;0.80;;;0.50;;
13475;SDS011;6810;63.824;20.288;2023-08-30T02:36:39;2.30;;;0.60;;
13475;SDS011;6810;63.824;20.288;2023-08-30T02:39:06;0.53;;;0.30;;
13475;SDS011;6810;63.824;20.288;2023-08-30T02:41:33;1.83;;;0.50;;
13475;SDS011;6810;63.824;20.288;2023-08-30T02:44:01;1.77;;;0.30;;
13475;SDS011;6810;63.824;20.288;2023-08-30T02:46:28;1.40;;;0.40;;
13475;SDS011;6810;63.824;20.288;2023-08-30T02:48:55;2.20;;;0.60;;
13475;SDS011;6810;63.824;20.288;2023-08-30T02:51:22;1.57;;;0.50;;
13475;SDS011;6810;63.824;20.288;2023-08-30T02:53:49;0.70;;;0.50;;
13475;SDS011;6810;63.824;20.288;2023-08-30T02:56:16;2.73;;;0.70;;
13475;SDS011;6810;63.824;20.288;2023-08-30T02:58:43;0.50;;;0.40;;
13475;SDS011;6810;63.824;20.288;2023-08-30T03:01:11;1.47;;;0.50;;
13475;SDS011;6810;63.824;20.288;2023-08-30T03:03:38;1.90;;;0.40;;
13475;SDS011;6810;63.824;20.288;2023-08-30T03:06:06;0.60;;;0.40;;
13475;SDS011;6810;63.824;20.288;2023-08-30T03:08:33;1.73;;;0.60;;
13475;SDS011;6810;63.824;20.288;2023-08-30T03:11:09;4.83;;;0.70;;
13475;SDS011;6810;63.824;20.288;2023-08-30T03:13:43;3.40;;;1.13;;
13475;SDS011;6810;63.824;20.288;2023-08-30T03:16:10;1.03;;;0.40;;
13475;SDS011;6810;63.824;20.288;2023-08-30T03:18:39;2.93;;;0.70;;
13475;SDS011;6810;63.824;20.288;2023-08-30T03:21:07;5.47;;;0.63;;
13475;SDS011;6810;63.824;20.288;2023-08-30T03:23:35;1.60;;;0.50;;
13475;SDS011;6810;63.824;20.288;2023-08-30T03:26:08;3.80;;;0.50;;
13475;SDS011;6810;63.824;20.288;2023-08-30T03:28:36;0.57;;;0.40;;
13475;SDS011;6810;63.824;20.288;2023-08-30T03:31:18;0.83;;;0.50;;
13475;SDS011;6810;63.824;20.288;2023-08-30T03:33:46;1.90;;;0.50;;
13475;SDS011;6810;63.824;20.288;2023-08-30T03:36:16;2.10;;;0.40;;
13475;SDS011;6810;63.824;20.288;2023-08-30T03:38:43;0.93;;;0.50;;
13475;SDS011;6810;63.824;20.288;2023-08-30T03:41:12;4.13;;;0.60;;
13475;SDS011;6810;63.824;20.288;2023-08-30T03:43:39;0.40;;;0.40;;
13475;SDS011;6810;63.824;20.288;2023-08-30T03:46:08;0.60;;;0.40;;
13475;SDS011;6810;63.824;20.288;2023-08-30T03:48:36;0.70;;;0.50;;
13475;SDS011;6810;63.824;20.288;2023-08-30T03:51:03;1.43;;;0.60;;
13475;SDS011;6810;63.824;20.288;2023-08-30T03:53:32;1.43;;;0.60;;
13475;SDS011;6810;63.824;20.288;2023-08-30T03:55:59;2.10;;;0.60;;
13475;SDS011;6810;63.824;20.288;2023-08-30T03:58:26;0.77;;;0.60;;
13475;SDS011;6810;63.824;20.288;2023-08-30T04:00:53;0.50;;;0.50;;
13475;SDS011;6810;63.824;20.288;2023-08-30T04:03:20;0.60;;;0.40;;
13475;SDS011;6810;63.824;20.288;2023-08-30T04:05:47;0.80;;;0.60;;
13475;SDS011;6810;63.824;20.288;2023-08-30T04:08:14;1.53;;;0.63;;
13475;SDS011;6810;63.824;20.288;2023-08-30T04:10:41;1.33;;;0.60;;
13475;SDS011;6810;63.824;20.288;2023-08-30T04:13:09;2.73;;;1.00;;
13475;SDS011;6810;63.824;20.288;2023-08-30T04:15:37;2.53;;;0.50;;
13475;SDS011;6810;63.824;20.288;2023-08-30T04:18:07;0.60;;;0.57;;
13475;SDS011;6810;63.824;20.288;2023-08-30T04:20:35;2.10;;;1.27;;
13475;SDS011;6810;63.824;20.288;2023-08-30T04:23:02;1.10;;;0.67;;
13475;SDS011;6810;63.824;20.288;2023-08-30T04:25:30;2.73;;;0.70;;
13475;SDS011;6810;63.824;20.288;2023-08-30T04:27:57;1.20;;;0.63;;
13475;SDS011;6810;63.824;20.288;2023-08-30T04:30:25;0.63;;;0.60;;
13475;SDS011;6810;63.824;20.288;2023-08-30T04:32:52;0.70;;;0.43;;
13475;SDS011;6810;63.824;20.288;2023-08-30T04:35:20;1.00;;;0.70;;
13475;SDS011;6810;63.824;20.288;2023-08-30T04:37:47;1.80;;;0.80;;
13475;SDS011;6810;63.824;20.288;2023-08-30T04:40:14;1.23;;;0.67;;
13475;SDS011;6810;63.824;20.288;2023-08-30T04:42:43;2.77;;;0.70;;
13475;SDS011;6810;63.824;20.288;2023-08-30T04:45:10;1.77;;;0.60;;
13475;SDS011;6810;63.824;20.288;2023-08-30T04:47:37;1.47;;;0.60;;
13475;SDS011;6810;63.824;20.288;2023-08-30T04:50:05;2.53;;;0.70;;
13475;SDS011;6810;63.824;20.288;2023-08-30T04:52:33;1.47;;;1.00;;
13475;SDS011;6810;63.824;20.288;2023-08-30T04:55:00;0.97;;;0.70;;
13475;SDS011;6810;63.824;20.288;2023-08-30T04:57:29;0.90;;;0.70;;
13475;SDS011;6810;63.824;20.288;2023-08-30T04:59:56;1.67;;;0.67;;
13475;SDS011;6810;63.824;20.288;2023-08-30T05:02:23;2.03;;;0.70;;
13475;SDS011;6810;63.824;20.288;2023-08-30T05:04:58;0.67;;;0.50;;
13475;SDS011;6810;63.824;20.288;2023-08-30T05:07:25;1.90;;;0.70;;
13475;SDS011;6810;63.824;20.288;2023-08-30T05:09:52;1.73;;;0.70;;
13475;SDS011;6810;63.824;20.288;2023-08-30T05:12:19;2.93;;;0.73;;
13475;SDS011;6810;63.824;20.288;2023-08-30T05:14:46;2.33;;;0.93;;
13475;SDS011;6810;63.824;20.288;2023-08-30T05:17:13;2.60;;;0.80;;
13475;SDS011;6810;63.824;20.288;2023-08-30T05:19:40;2.43;;;0.77;;
13475;SDS011;6810;63.824;20.288;2023-08-30T05:22:07;1.53;;;0.70;;
13475;SDS011;6810;63.824;20.288;2023-08-30T05:24:35;2.33;;;0.60;;
13475;SDS011;6810;63.824;20.288;2023-08-30T05:27:02;2.37;;;0.70;;
13475;SDS011;6810;63.824;20.288;2023-08-30T05:29:37;4.50;;;0.80;;
13475;SDS011;6810;63.824;20.288;2023-08-30T05:32:04;2.93;;;0.67;;
13475;SDS011;6810;63.824;20.288;2023-08-30T05:34:44;1.83;;;0.63;;
13475;SDS011;6810;63.824;20.288;2023-08-30T05:37:20;1.60;;;0.87;;
13475;SDS011;6810;63.824;20.288;2023-08-30T05:40:01;2.57;;;0.70;;
13475;SDS011;6810;63.824;20.288;2023-08-30T05:42:30;2.57;;;0.80;;
13475;SDS011;6810;63.824;20.288;2023-08-30T05:44:57;1.47;;;0.70;;
13475;SDS011;6810;63.824;20.288;2023-08-30T05:47:24;4.60;;;1.23;;
13475;SDS011;6810;63.824;20.288;2023-08-30T05:49:51;3.40;;;0.70;;
13475;SDS011;6810;63.824;20.288;2023-08-30T05:52:19;2.47;;;0.70;;
13475;SDS011;6810;63.824;20.288;2023-08-30T05:54:46;1.97;;;0.80;;
13475;SDS011;6810;63.824;20.288;2023-08-30T05:57:13;1.53;;;1.13;;
13475;SDS011;6810;63.824;20.288;2023-08-30T05:59:40;4.33;;;1.10;;
13475;SDS011;6810;63.824;20.288;2023-08-30T06:02:07;1.20;;;0.73;;
13475;SDS011;6810;63.824;20.288;2023-08-30T06:04:34;2.97;;;0.80;;
13475;SDS011;6810;63.824;20.288;2023-08-30T06:07:01;1.43;;;0.70;;
13475;SDS011;6810;63.824;20.288;2023-08-30T06:09:30;1.97;;;0.70;;
13475;SDS011;6810;63.824;20.288;2023-08-30T06:11:57;1.77;;;0.63;;
13475;SDS011;6810;63.824;20.288;2023-08-30T06:14:24;1.10;;;0.60;;
13475;SDS011;6810;63.824;20.288;2023-08-30T06:16:50;2.10;;;0.73;;
13475;SDS011;6810;63.824;20.288;2023-08-30T06:19:18;3.20;;;0.60;;
13475;SDS011;6810;63.824;20.288;2023-08-30T06:21:45;1.43;;;0.70;;
13475;SDS011;6810;63.824;20.288;2023-08-30T06:24:12;1.83;;;0.73;;
13475;SDS011;6810;63.824;20.288;2023-08-30T06:26:39;2.23;;;0.80;;
13475;SDS011;6810;63.824;20.288;2023-08-30T06:29:06;4.13;;;0.80;;
13475;SDS011;6810;63.824;20.288;2023-08-30T06:31:33;2.90;;;0.90;;
13475;SDS011;6810;63.824;20.288;2023-08-30T06:34:00;4.47;;;1.07;;
13475;SDS011;6810;63.824;20.288;2023-08-30T06:36:27;4.03;;;0.97;;
13475;SDS011;6810;63.824;20.288;2023-08-30T06:38:54;3.83;;;0.90;;
13475;SDS011;6810;63.824;20.288;2023-08-30T06:41:21;3.20;;;0.70;;
13475;SDS011;6810;63.824;20.288;2023-08-30T06:43:48;2.93;;;0.70;;
13475;SDS011;6810;63.824;20.288;2023-08-30T06:46:16;2.50;;;0.93;;
13475;SDS011;6810;63.824;20.288;2023-08-30T06:48:43;3.03;;;0.97;;
13475;SDS011;6810;63.824;20.288;2023-08-30T06:51:11;7.70;;;1.40;;
13475;SDS011;6810;63.824;20.288;2023-08-30T06:53:38;4.03;;;1.00;;
13475;SDS011;6810;63.824;20.288;2023-08-30T06:56:05;5.50;;;1.00;;
13475;SDS011;6810;63.824;20.288;2023-08-30T06:58:32;4.00;;;0.93;;
13475;SDS011;6810;63.824;20.288;2023-08-30T07:00:59;1.83;;;0.70;;
13475;SDS011;6810;63.824;20.288;2023-08-30T07:03:26;2.20;;;0.70;;
13475;SDS011;6810;63.824;20.288;2023-08-30T07:05:53;2.33;;;0.90;;
13475;SDS011;6810;63.824;20.288;2023-08-30T07:08:21;3.87;;;0.73;;
13475;SDS011;6810;63.824;20.288;2023-08-30T07:10:48;2.77;;;0.60;;
13475;SDS011;6810;63.824;20.288;2023-08-30T07:13:15;5.23;;;1.17;;
13475;SDS011;6810;63.824;20.288;2023-08-30T07:15:42;0.97;;;0.70;;
13475;SDS011;6810;63.824;20.288;2023-08-30T07:18:10;2.63;;;0.70;;
13475;SDS011;6810;63.824;20.288;2023-08-30T07:20:38;2.37;;;0.70;;
13475;SDS011;6810;63.824;20.288;2023-08-30T07:23:05;2.10;;;0.93;;
13475;SDS011;6810;63.824;20.288;2023-08-30T07:25:36;1.53;;;1.03;;
13475;SDS011;6810;63.824;20.288;2023-08-30T07:28:04;4.53;;;1.00;;
13475;SDS011;6810;63.824;20.288;2023-08-30T07:30:32;1.37;;;0.77;;
13475;SDS011;6810;63.824;20.288;2023-08-30T07:33:02;4.77;;;1.03;;
13475;SDS011;6810;63.824;20.288;2023-08-30T07:35:31;3.67;;;0.90;;
13475;SDS011;6810;63.824;20.288;2023-08-30T07:37:59;1.53;;;0.73;;
13475;SDS011;6810;63.824;20.288;2023-08-30T07:40:26;3.17;;;0.80;;
13475;SDS011;6810;63.824;20.288;2023-08-30T07:42:55;4.83;;;0.80;;
13475;SDS011;6810;63.824;20.288;2023-08-30T07:45:30;3.50;;;0.80;;
13475;SDS011;6810;63.824;20.288;2023-08-30T07:47:57;2.30;;;0.80;;
13475;SDS011;6810;63.824;20.288;2023-08-30T07:50:24;2.63;;;0.77;;
13475;SDS011;6810;63.824;20.288;2023-08-30T07:52:51;6.70;;;0.83;;
13475;SDS011;6810;63.824;20.288;2023-08-30T07:55:18;2.40;;;0.60;;
13475;SDS011;6810;63.824;20.288;2023-08-30T07:57:45;4.30;;;0.90;;
13475;SDS011;6810;63.824;20.288;2023-08-30T08:00:12;0.73;;;0.70;;
13475;SDS011;6810;63.824;20.288;2023-08-30T08:02:44;2.60;;;0.80;;
13475;SDS011;6810;63.824;20.288;2023-08-30T08:05:11;1.60;;;0.70;;
13475;SDS011;6810;63.824;20.288;2023-08-30T08:07:38;2.73;;;0.70;;
13475;SDS011;6810;63.824;20.288;2023-08-30T08:10:07;1.13;;;0.70;;
13475;SDS011;6810;63.824;20.288;2023-08-30T08:12:34;4.20;;;0.63;;
13475;SDS011;6810;63.824;20.288;2023-08-30T08:15:02;1.40;;;0.70;;
13475;SDS011;6810;63.824;20.288;2023-08-30T08:17:29;4.13;;;0.97;;
13475;SDS011;6810;63.824;20.288;2023-08-30T08:19:56;1.77;;;0.60;;
13475;SDS011;6810;63.824;20.288;2023-08-30T08:22:24;0.70;;;0.50;;
13475;SDS011;6810;63.824;20.288;2023-08-30T08:24:51;2.53;;;0.43;;
13475;SDS011;6810;63.824;20.288;2023-08-30T08:27:20;1.37;;;0.70;;
13475;SDS011;6810;63.824;20.288;2023-08-30T08:29:47;4.43;;;1.00;;
13475;SDS011;6810;63.824;20.288;2023-08-30T08:32:14;6.33;;;1.30;;
13475;SDS011;6810;63.824;20.288;2023-08-30T08:34:41;4.77;;;0.93;;
13475;SDS011;6810;63.824;20.288;2023-08-30T08:37:08;2.67;;;0.73;;
13475;SDS011;6810;63.824;20.288;2023-08-30T08:39:35;2.57;;;1.00;;
13475;SDS011;6810;63.824;20.288;2023-08-30T08:42:03;3.67;;;0.83;;
13475;SDS011;6810;63.824;20.288;2023-08-30T08:44:31;3.67;;;0.83;;
13475;SDS011;6810;63.824;20.288;2023-08-30T08:46:59;3.40;;;0.83;;
13475;SDS011;6810;63.824;20.288;2023-08-30T08:49:27;4.03;;;0.90;;
13475;SDS011;6810;63.824;20.288;2023-08-30T08:51:56;4.03;;;0.70;;
13475;SDS011;6810;63.824;20.288;2023-08-30T08:54:24;2.23;;;0.90;;
13475;SDS011;6810;63.824;20.288;2023-08-30T08:56:52;1.40;;;0.90;;
13475;SDS011;6810;63.824;20.288;2023-08-30T08:59:20;3.70;;;0.70;;
13475;SDS011;6810;63.824;20.288;2023-08-30T09:01:48;2.87;;;0.70;;
13475;SDS011;6810;63.824;20.288;2023-08-30T09:04:15;3.03;;;0.80;;
13475;SDS011;6810;63.824;20.288;2023-08-30T09:06:42;2.37;;;0.90;;
13475;SDS011;6810;63.824;20.288;2023-08-30T09:09:12;2.20;;;0.63;;
13475;SDS011;6810;63.824;20.288;2023-08-30T09:11:40;2.13;;;0.60;;
13475;SDS011;6810;63.824;20.288;2023-08-30T09:14:09;1.57;;;0.60;;
13475;SDS011;6810;63.824;20.288;2023-08-30T09:16:36;4.53;;;0.57;;
13475;SDS011;6810;63.824;20.288;2023-08-30T09:19:04;3.93;;;1.00;;
13475;SDS011;6810;63.824;20.288;2023-08-30T09:21:34;2.63;;;0.60;;
13475;SDS011;6810;63.824;20.288;2023-08-30T09:24:05;0.83;;;0.50;;
13475;SDS011;6810;63.824;20.288;2023-08-30T09:26:33;2.87;;;0.73;;
13475;SDS011;6810;63.824;20.288;2023-08-30T09:29:08;2.37;;;0.60;;
13475;SDS011;6810;63.824;20.288;2023-08-30T09:31:35;1.03;;;0.53;;
13475;SDS011;6810;63.824;20.288;2023-08-30T09:34:04;1.70;;;0.70;;
13475;SDS011;6810;63.824;20.288;2023-08-30T09:36:41;0.40;;;0.40;;
13475;SDS011;6810;63.824;20.288;2023-08-30T09:39:09;0.80;;;0.53;;
13475;SDS011;6810;63.824;20.288;2023-08-30T09:41:41;1.90;;;0.43;;
13475;SDS011;6810;63.824;20.288;2023-08-30T09:44:09;0.87;;;0.50;;
13475;SDS011;6810;63.824;20.288;2023-08-30T09:46:53;1.50;;;0.40;;
13475;SDS011;6810;63.824;20.288;2023-08-30T09:49:21;1.57;;;0.50;;
13475;SDS011;6810;63.824;20.288;2023-08-30T09:51:50;1.00;;;0.50;;
13475;SDS011;6810;63.824;20.288;2023-08-30T09:54:41;1.70;;;0.50;;
13475;SDS011;6810;63.824;20.288;2023-08-30T09:57:10;1.57;;;0.60;;
13475;SDS011;6810;63.824;20.288;2023-08-30T09:59:37;0.60;;;0.60;;
13475;SDS011;6810;63.824;20.288;2023-08-30T10:02:06;0.73;;;0.40;;
13475;SDS011;6810;63.824;20.288;2023-08-30T10:04:37;0.67;;;0.50;;
13475;SDS011;6810;63.824;20.288;2023-08-30T10:07:07;0.50;;;0.50;;
13475;SDS011;6810;63.824;20.288;2023-08-30T10:09:37;0.57;;;0.57;;
13475;SDS011;6810;63.824;20.288;2023-08-30T10:12:28;1.67;;;0.67;;
13475;SDS011;6810;63.824;20.288;2023-08-30T10:14:55;3.37;;;0.80;;
13475;SDS011;6810;63.824;20.288;2023-08-30T10:17:28;2.50;;;0.77;;
13475;SDS011;6810;63.824;20.288;2023-08-30T10:19:58;1.57;;;0.80;;
13475;SDS011;6810;63.824;20.288;2023-08-30T10:22:30;0.83;;;0.70;;
13475;SDS011;6810;63.824;20.288;2023-08-30T10:25:11;2.63;;;0.80;;
13475;SDS011;6810;63.824;20.288;2023-08-30T10:27:44;2.00;;;0.80;;
13475;SDS011;6810;63.824;20.288;2023-08-30T10:30:14;0.60;;;0.60;;
13475;SDS011;6810;63.824;20.288;2023-08-30T10:32:44;0.73;;;0.73;;
13475;SDS011;6810;63.824;20.288;2023-08-30T10:35:15;1.07;;;0.70;;
13475;SDS011;6810;63.824;20.288;2023-08-30T10:37:57;4.00;;;0.87;;
13475;SDS011;6810;63.824;20.288;2023-08-30T10:40:26;2.07;;;0.80;;
13475;SDS011;6810;63.824;20.288;2023-08-30T10:42:59;1.47;;;0.80;;
13475;SDS011;6810;63.824;20.288;2023-08-30T10:45:30;1.70;;;0.90;;
13475;SDS011;6810;63.824;20.288;2023-08-30T10:47:58;0.70;;;0.70;;
13475;SDS011;6810;63.824;20.288;2023-08-30T10:50:30;0.70;;;0.70;;
13475;SDS011;6810;63.824;20.288;2023-08-30T10:52:59;2.90;;;0.97;;
13475;SDS011;6810;63.824;20.288;2023-08-30T10:55:26;2.53;;;0.97;;
13475;SDS011;6810;63.824;20.288;2023-08-30T10:58:03;1.10;;;1.00;;
13475;SDS011;6810;63.824;20.288;2023-08-30T11:00:33;1.17;;;1.03;;
13475;SDS011;6810;63.824;20.288;2023-08-30T11:03:02;1.43;;;0.80;;
13475;SDS011;6810;63.824;20.288;2023-08-30T11:05:30;2.23;;;1.10;;
13475;SDS011;6810;63.824;20.288;2023-08-30T11:07:57;3.07;;;1.40;;
13475;SDS011;6810;63.824;20.288;2023-08-30T11:10:24;0.90;;;0.90;;
13475;SDS011;6810;63.824;20.288;2023-08-30T11:12:52;1.83;;;1.37;;
13475;SDS011;6810;63.824;20.288;2023-08-30T11:15:19;1.63;;;1.23;;
13475;SDS011;6810;63.824;20.288;2023-08-30T11:17:47;1.40;;;1.30;;
13475;SDS011;6810;63.824;20.288;2023-08-30T11:20:15;1.40;;;1.30;;
13475;SDS011;6810;63.824;20.288;2023-08-30T11:22:48;2.30;;;1.50;;
13475;SDS011;6810;63.824;20.288;2023-08-30T11:25:16;1.20;;;0.93;;
13475;SDS011;6810;63.824;20.288;2023-08-30T11:27:45;1.10;;;1.10;;
13475;SDS011;6810;63.824;20.288;2023-08-30T11:30:12;1.20;;;1.10;;
13475;SDS011;6810;63.824;20.288;2023-08-30T11:32:40;1.77;;;1.20;;
13475;SDS011;6810;63.824;20.288;2023-08-30T11:35:10;1.63;;;1.20;;
13475;SDS011;6810;63.824;20.288;2023-08-30T11:37:37;2.63;;;1.13;;
13475;SDS011;6810;63.824;20.288;2023-08-30T11:40:07;1.27;;;1.17;;
13475;SDS011;6810;63.824;20.288;2023-08-30T11:42:34;3.37;;;2.00;;
13475;SDS011;6810;63.824;20.288;2023-08-30T11:45:01;2.50;;;1.30;;
13475;SDS011;6810;63.824;20.288;2023-08-30T11:47:30;1.80;;;1.43;;
13475;SDS011;6810;63.824;20.288;2023-08-30T11:49:57;2.17;;;1.20;;
13475;SDS011;6810;63.824;20.288;2023-08-30T11:52:26;1.30;;;1.10;;
13475;SDS011;6810;63.824;20.288;2023-08-30T11:54:54;1.50;;;1.07;;
13475;SDS011;6810;63.824;20.288;2023-08-30T11:57:22;2.13;;;1.53;;
13475;SDS011;6810;63.824;20.288;2023-08-30T11:59:49;2.70;;;1.30;;
13475;SDS011;6810;63.824;20.288;2023-08-30T12:02:17;1.20;;;1.10;;
13475;SDS011;6810;63.824;20.288;2023-08-30T12:04:45;1.33;;;1.23;;
13475;SDS011;6810;63.824;20.288;2023-08-30T12:07:21;1.33;;;1.20;;
13475;SDS011;6810;63.824;20.288;2023-08-30T12:09:52;0.90;;;0.90;;
13475;SDS011;6810;63.824;20.288;2023-08-30T12:12:22;2.53;;;1.50;;
13475;SDS011;6810;63.824;20.288;2023-08-30T12:14:55;3.27;;;1.30;;
13475;SDS011;6810;63.824;20.288;2023-08-30T12:17:23;2.37;;;1.40;;
13475;SDS011;6810;63.824;20.288;2023-08-30T12:19:57;4.47;;;1.37;;
13475;SDS011;6810;63.824;20.288;2023-08-30T12:22:35;1.87;;;1.40;;
13475;SDS011;6810;63.824;20.288;2023-08-30T12:25:27;1.70;;;1.60;;
13475;SDS011;6810;63.824;20.288;2023-08-30T12:27:53;2.83;;;1.63;;
13475;SDS011;6810;63.824;20.288;2023-08-30T12:30:20;1.63;;;1.53;;
13475;SDS011;6810;63.824;20.288;2023-08-30T12:32:48;1.50;;;1.40;;
13475;SDS011;6810;63.824;20.288;2023-08-30T12:35:15;1.40;;;1.30;;
13475;SDS011;6810;63.824;20.288;2023-08-30T12:37:42;2.87;;;1.43;;
13475;SDS011;6810;63.824;20.288;2023-08-30T12:40:10;1.47;;;1.37;;
13475;SDS011;6810;63.824;20.288;2023-08-30T12:42:37;1.43;;;1.33;;
13475;SDS011;6810;63.824;20.288;2023-08-30T12:45:04;1.50;;;1.20;;
13475;SDS011;6810;63.824;20.288;2023-08-30T12:47:32;1.20;;;1.20;;
13475;SDS011;6810;63.824;20.288;2023-08-30T12:49:59;1.67;;;1.10;;
13475;SDS011;6810;63.824;20.288;2023-08-30T12:52:26;2.10;;;1.37;;
13475;SDS011;6810;63.824;20.288;2023-08-30T12:54:53;1.30;;;1.20;;
13475;SDS011;6810;63.824;20.288;2023-08-30T12:57:21;1.63;;;1.40;;
13475;SDS011;6810;63.824;20.288;2023-08-30T12:59:51;1.77;;;1.50;;
13475;SDS011;6810;63.824;20.288;2023-08-30T13:02:19;1.47;;;1.37;;
13475;SDS011;6810;63.824;20.288;2023-08-30T13:04:46;1.50;;;1.40;;
13475;SDS011;6810;63.824;20.288;2023-08-30T13:07:13;1.60;;;1.50;;
13475;SDS011;6810;63.824;20.288;2023-08-30T13:09:40;1.60;;;1.50;;
13475;SDS011;6810;63.824;20.288;2023-08-30T13:12:07;1.47;;;1.37;;
13475;SDS011;6810;63.824;20.288;2023-08-30T13:14:34;1.20;;;1.10;;
13475;SDS011;6810;63.824;20.288;2023-08-30T13:17:01;1.80;;;1.10;;
13475;SDS011;6810;63.824;20.288;2023-08-30T13:19:29;1.30;;;1.20;;
13475;SDS011;6810;63.824;20.288;2023-08-30T13:21:56;1.60;;;1.50;;
13475;SDS011;6810;63.824;20.288;2023-08-30T13:24:24;1.57;;;1.40;;
13475;SDS011;6810;63.824;20.288;2023-08-30T13:26:51;2.57;;;1.37;;
13475;SDS011;6810;63.824;20.288;2023-08-30T13:29:18;2.63;;;1.43;;
13475;SDS011;6810;63.824;20.288;2023-08-30T13:31:45;1.57;;;1.43;;
13475;SDS011;6810;63.824;20.288;2023-08-30T13:34:12;2.23;;;1.23;;
13475;SDS011;6810;63.824;20.288;2023-08-30T13:36:39;1.60;;;1.50;;
13475;SDS011;6810;63.824;20.288;2023-08-30T13:39:06;3.10;;;1.73;;
13475;SDS011;6810;63.824;20.288;2023-08-30T13:41:33;1.73;;;1.17;;
13475;SDS011;6810;63.824;20.288;2023-08-30T13:44:02;4.97;;;1.50;;
13475;SDS011;6810;63.824;20.288;2023-08-30T13:46:32;1.40;;;1.30;;
13475;SDS011;6810;63.824;20.288;2023-08-30T13:49:00;2.20;;;1.40;;
13475;SDS011;6810;63.824;20.288;2023-08-30T13:51:27;4.07;;;1.40;;
13475;SDS011;6810;63.824;20.288;2023-08-30T13:53:54;2.70;;;1.63;;
13475;SDS011;6810;63.824;20.288;2023-08-30T13:56:21;1.47;;;1.37;;
13475;SDS011;6810;63.824;20.288;2023-08-30T13:58:49;2.13;;;1.40;;
13475;SDS011;6810;63.824;20.288;2023-08-30T14:01:16;1.93;;;1.30;;
13475;SDS011;6810;63.824;20.288;2023-08-30T14:03:43;1.50;;;1.30;;
13475;SDS011;6810;63.824;20.288;2023-08-30T14:06:10;3.63;;;1.60;;
13475;SDS011;6810;63.824;20.288;2023-08-30T14:08:38;1.67;;;1.57;;
13475;SDS011;6810;63.824;20.288;2023-08-30T14:11:05;1.40;;;1.30;;
13475;SDS011;6810;63.824;20.288;2023-08-30T14:13:32;1.80;;;1.50;;
13475;SDS011;6810;63.824;20.288;2023-08-30T14:16:00;3.13;;;1.60;;
13475;SDS011;6810;63.824;20.288;2023-08-30T14:18:30;2.13;;;1.50;;
13475;SDS011;6810;63.824;20.288;2023-08-30T14:21:00;4.33;;;1.50;;
13475;SDS011;6810;63.824;20.288;2023-08-30T14:23:28;2.37;;;1.73;;
13475;SDS011;6810;63.824;20.288;2023-08-30T14:26:00;5.73;;;1.70;;
13475;SDS011;6810;63.824;20.288;2023-08-30T14:28:39;2.73;;;1.63;;
13475;SDS011;6810;63.824;20.288;2023-08-30T14:31:07;3.07;;;1.67;;
13475;SDS011;6810;63.824;20.288;2023-08-30T14:33:37;3.87;;;1.67;;
13475;SDS011;6810;63.824;20.288;2023-08-30T14:36:09;2.30;;;1.60;;
13475;SDS011;6810;63.824;20.288;2023-08-30T14:38:38;2.27;;;1.50;;
13475;SDS011;6810;63.824;20.288;2023-08-30T14:41:05;1.60;;;1.50;;
13475;SDS011;6810;63.824;20.288;2023-08-30T14:43:32;1.37;;;1.27;;
13475;SDS011;6810;63.824;20.288;2023-08-30T14:46:00;4.07;;;1.60;;
13475;SDS011;6810;63.824;20.288;2023-08-30T14:48:40;1.40;;;1.30;;
13475;SDS011;6810;63.824;20.288;2023-08-30T14:51:07;2.03;;;1.50;;
13475;SDS011;6810;63.824;20.288;2023-08-30T14:53:35;1.40;;;1.20;;
13475;SDS011;6810;63.824;20.288;2023-08-30T14:56:03;2.90;;;1.60;;
13475;SDS011;6810;63.824;20.288;2023-08-30T14:58:36;3.13;;;1.50;;
13475;SDS011;6810;63.824;20.288;2023-08-30T15:01:04;3.70;;;1.50;;